sensor_id;sensor_type;location;lat;lon;timestamp;pressure;altitude;pressure_sealevel;temperature;humidity
8573;BME280;4324;42.012;24.872;2022-10-31T00:01:38;99178.50;;;16.00;49.79
8573;BME280;4324;42.012;24.872;2022-10-31T00:04:05;99174.38;;;15.97;49.64
8573;BME280;4324;42.012;24.872;2022-10-31T00:06:32;99169.03;;;15.97;50.03
8573;BME280;4324;42.012;24.872;2022-10-31T00:09:02;99179.72;;;15.97;50.14
8573;BME280;4324;42.012;24.872;2022-10-31T00:11:29;99105.03;;;15.48;50.09
8573;BME280;4324;42.012;24.872;2022-10-31T00:13:57;99175.41;;;15.96;50.21
8573;BME280;4324;42.012;24.872;2022-10-31T00:16:26;99177.47;;;15.94;50.21
8573;BME280;4324;42.012;24.872;2022-10-31T00:18:54;99176.81;;;15.92;50.41
8573;BME280;4324;42.012;24.872;2022-10-31T00:21:22;99180.09;;;15.88;50.33
8573;BME280;4324;42.012;24.872;2022-10-31T00:23:49;99168.53;;;15.81;50.40
8573;BME280;4324;42.012;24.872;2022-10-31T00:26:16;99175.97;;;15.85;50.34
8573;BME280;4324;42.012;24.872;2022-10-31T00:28:43;99174.06;;;15.79;50.37
8573;BME280;4324;42.012;24.872;2022-10-31T00:31:11;99171.75;;;15.69;50.37
8573;BME280;4324;42.012;24.872;2022-10-31T00:33:40;99170.53;;;15.72;50.51
8573;BME280;4324;42.012;24.872;2022-10-31T00:36:10;99161.00;;;15.63;50.85
8573;BME280;4324;42.012;24.872;2022-10-31T00:38:37;99160.16;;;15.62;50.68
8573;BME280;4324;42.012;24.872;2022-10-31T00:41:04;99155.66;;;15.63;50.69
8573;BME280;4324;42.012;24.872;2022-10-31T00:43:31;99150.47;;;15.55;50.94
8573;BME280;4324;42.012;24.872;2022-10-31T00:45:58;99161.38;;;15.60;51.09
8573;BME280;4324;42.012;24.872;2022-10-31T00:48:25;99156.41;;;15.57;51.35
8573;BME280;4324;42.012;24.872;2022-10-31T00:50:53;99165.06;;;15.59;51.17
8573;BME280;4324;42.012;24.872;2022-10-31T00:53:21;99164.25;;;15.58;51.16
8573;BME280;4324;42.012;24.872;2022-10-31T00:55:48;99162.41;;;15.59;51.19
8573;BME280;4324;42.012;24.872;2022-10-31T00:58:14;99161.91;;;15.48;51.34
8573;BME280;4324;42.012;24.872;2022-10-31T01:00:41;99164.25;;;15.58;51.59
8573;BME280;4324;42.012;24.872;2022-10-31T01:03:08;99165.50;;;15.62;51.31
8573;BME280;4324;42.012;24.872;2022-10-31T01:05:36;99166.34;;;15.63;51.41
8573;BME280;4324;42.012;24.872;2022-10-31T01:08:04;99164.31;;;15.65;51.62
8573;BME280;4324;42.012;24.872;2022-10-31T01:10:31;99164.31;;;15.65;51.59
8573;BME280;4324;42.012;24.872;2022-10-31T01:12:58;99154.41;;;15.59;51.57
8573;BME280;4324;42.012;24.872;2022-10-31T01:15:25;99163.91;;;15.68;51.48
8573;BME280;4324;42.012;24.872;2022-10-31T01:17:52;99074.00;;;15.12;51.48
8573;BME280;4324;42.012;24.872;2022-10-31T01:20:19;99146.25;;;15.67;51.47
8573;BME280;4324;42.012;24.872;2022-10-31T01:22:46;99130.75;;;15.56;51.46
8573;BME280;4324;42.012;24.872;2022-10-31T01:25:14;99154.13;;;15.75;51.66
8573;BME280;4324;42.012;24.872;2022-10-31T01:27:41;99145.72;;;15.78;51.71
8573;BME280;4324;42.012;24.872;2022-10-31T01:30:08;99147.78;;;15.76;51.50
8573;BME280;4324;42.012;24.872;2022-10-31T01:32:35;99144.91;;;15.78;51.53
8573;BME280;4324;42.012;24.872;2022-10-31T01:35:03;99154.59;;;15.85;51.45
8573;BME280;4324;42.012;24.872;2022-10-31T01:37:30;99140.66;;;15.90;51.58
8573;BME280;4324;42.012;24.872;2022-10-31T01:39:57;99139.22;;;15.94;51.57
8573;BME280;4324;42.012;24.872;2022-10-31T01:42:25;99129.78;;;15.91;51.47
8573;BME280;4324;42.012;24.872;2022-10-31T01:44:55;99130.41;;;15.93;51.49
8573;BME280;4324;42.012;24.872;2022-10-31T01:47:39;99154.28;;;16.02;51.47
8573;BME280;4324;42.012;24.872;2022-10-31T01:50:15;99128.75;;;15.92;51.22
8573;BME280;4324;42.012;24.872;2022-10-31T01:52:48;99139.53;;;16.06;51.27
8573;BME280;4324;42.012;24.872;2022-10-31T01:55:19;99135.81;;;16.07;51.41
8573;BME280;4324;42.012;24.872;2022-10-31T01:57:51;99147.38;;;16.14;51.38
8573;BME280;4324;42.012;24.872;2022-10-31T02:00:19;99133.19;;;16.13;51.29
8573;BME280;4324;42.012;24.872;2022-10-31T02:02:48;99140.38;;;16.19;51.19
8573;BME280;4324;42.012;24.872;2022-10-31T02:05:18;99130.34;;;16.21;51.04
8573;BME280;4324;42.012;24.872;2022-10-31T02:07:51;99111.59;;;16.15;51.11
8573;BME280;4324;42.012;24.872;2022-10-31T02:10:21;99127.69;;;16.35;51.18
8573;BME280;4324;42.012;24.872;2022-10-31T02:12:50;99135.16;;;16.39;50.97
8573;BME280;4324;42.012;24.872;2022-10-31T02:15:18;99135.97;;;16.40;50.86
8573;BME280;4324;42.012;24.872;2022-10-31T02:17:45;99115.13;;;16.22;50.84
8573;BME280;4324;42.012;24.872;2022-10-31T02:20:16;99139.25;;;16.35;51.13
8573;BME280;4324;42.012;24.872;2022-10-31T02:23:02;99127.91;;;16.33;50.79
8573;BME280;4324;42.012;24.872;2022-10-31T02:25:51;99134.94;;;16.41;50.88
8573;BME280;4324;42.012;24.872;2022-10-31T02:28:40;99145.00;;;16.45;51.14
8573;BME280;4324;42.012;24.872;2022-10-31T02:31:22;99138.66;;;16.47;51.11
8573;BME280;4324;42.012;24.872;2022-10-31T02:33:53;99142.97;;;16.48;51.17
8573;BME280;4324;42.012;24.872;2022-10-31T02:36:27;99109.41;;;16.25;50.90
8573;BME280;4324;42.012;24.872;2022-10-31T02:39:02;99112.06;;;16.25;50.94
8573;BME280;4324;42.012;24.872;2022-10-31T02:41:40;99129.78;;;16.33;50.99
8573;BME280;4324;42.012;24.872;2022-10-31T02:44:15;99144.59;;;16.35;50.92
8573;BME280;4324;42.012;24.872;2022-10-31T02:46:51;99141.91;;;16.35;50.94
8573;BME280;4324;42.012;24.872;2022-10-31T02:49:24;99140.63;;;16.31;51.08
8573;BME280;4324;42.012;24.872;2022-10-31T02:51:54;99140.44;;;16.26;50.96
8573;BME280;4324;42.012;24.872;2022-10-31T02:54:23;99135.47;;;16.23;51.00
8573;BME280;4324;42.012;24.872;2022-10-31T02:56:54;99127.00;;;16.13;51.06
8573;BME280;4324;42.012;24.872;2022-10-31T02:59:25;99113.25;;;16.09;51.17
8573;BME280;4324;42.012;24.872;2022-10-31T03:02:27;99128.91;;;16.26;51.32
8573;BME280;4324;42.012;24.872;2022-10-31T03:05:11;99147.84;;;16.31;51.63
8573;BME280;4324;42.012;24.872;2022-10-31T03:07:46;99139.03;;;16.37;51.68
8573;BME280;4324;42.012;24.872;2022-10-31T03:10:27;99135.72;;;16.35;51.35
8573;BME280;4324;42.012;24.872;2022-10-31T03:13:01;99156.34;;;16.48;51.60
8573;BME280;4324;42.012;24.872;2022-10-31T03:15:34;99123.63;;;16.45;51.30
8573;BME280;4324;42.012;24.872;2022-10-31T03:18:08;99147.34;;;16.62;51.08
8573;BME280;4324;42.012;24.872;2022-10-31T03:20:38;99152.69;;;16.62;51.19
8573;BME280;4324;42.012;24.872;2022-10-31T03:23:11;99162.44;;;16.76;51.20
8573;BME280;4324;42.012;24.872;2022-10-31T03:25:39;99148.59;;;16.73;51.04
8573;BME280;4324;42.012;24.872;2022-10-31T03:28:08;99172.94;;;16.84;50.99
8573;BME280;4324;42.012;24.872;2022-10-31T03:30:41;99129.03;;;16.59;50.98
8573;BME280;4324;42.012;24.872;2022-10-31T03:33:12;99180.13;;;16.90;51.02
8573;BME280;4324;42.012;24.872;2022-10-31T03:35:44;99178.88;;;16.86;51.08
8573;BME280;4324;42.012;24.872;2022-10-31T03:38:12;99182.41;;;16.93;51.02
8573;BME280;4324;42.012;24.872;2022-10-31T03:40:42;99144.28;;;16.65;50.99
8573;BME280;4324;42.012;24.872;2022-10-31T03:43:13;99174.56;;;16.85;51.09
8573;BME280;4324;42.012;24.872;2022-10-31T03:45:45;99195.78;;;16.93;51.07
8573;BME280;4324;42.012;24.872;2022-10-31T03:48:16;99175.22;;;16.87;50.96
8573;BME280;4324;42.012;24.872;2022-10-31T03:50:49;99187.72;;;16.87;51.00
8573;BME280;4324;42.012;24.872;2022-10-31T03:53:24;99164.84;;;16.71;50.84
8573;BME280;4324;42.012;24.872;2022-10-31T03:55:58;99208.53;;;16.91;51.11
8573;BME280;4324;42.012;24.872;2022-10-31T03:58:29;99206.88;;;16.90;51.12
8573;BME280;4324;42.012;24.872;2022-10-31T04:01:00;99200.91;;;16.82;50.95
8573;BME280;4324;42.012;24.872;2022-10-31T04:03:31;99209.34;;;16.85;51.22
8573;BME280;4324;42.012;24.872;2022-10-31T04:06:01;99199.25;;;16.81;51.16
8573;BME280;4324;42.012;24.872;2022-10-31T04:08:33;99208.31;;;16.86;51.08
8573;BME280;4324;42.012;24.872;2022-10-31T04:11:03;99180.50;;;16.74;51.02
8573;BME280;4324;42.012;24.872;2022-10-31T04:13:33;99213.41;;;16.75;51.23
8573;BME280;4324;42.012;24.872;2022-10-31T04:16:04;99186.81;;;16.60;51.36
8573;BME280;4324;42.012;24.872;2022-10-31T04:18:33;99217.06;;;16.67;51.37
8573;BME280;4324;42.012;24.872;2022-10-31T04:21:01;99180.56;;;16.39;51.55
8573;BME280;4324;42.012;24.872;2022-10-31T04:23:28;99222.38;;;16.60;51.38
8573;BME280;4324;42.012;24.872;2022-10-31T04:25:55;99228.34;;;16.56;51.50
8573;BME280;4324;42.012;24.872;2022-10-31T04:28:22;99229.38;;;16.55;51.62
8573;BME280;4324;42.012;24.872;2022-10-31T04:30:49;99222.72;;;16.44;51.79
8573;BME280;4324;42.012;24.872;2022-10-31T04:33:16;99241.28;;;16.52;51.85
8573;BME280;4324;42.012;24.872;2022-10-31T04:35:45;99233.84;;;16.48;51.71
8573;BME280;4324;42.012;24.872;2022-10-31T04:38:12;99243.72;;;16.54;51.80
8573;BME280;4324;42.012;24.872;2022-10-31T04:40:39;99229.28;;;16.41;51.89
8573;BME280;4324;42.012;24.872;2022-10-31T04:43:06;99226.00;;;16.39;51.78
8573;BME280;4324;42.012;24.872;2022-10-31T04:45:33;99238.56;;;16.45;52.08
8573;BME280;4324;42.012;24.872;2022-10-31T04:48:03;99234.63;;;16.41;51.99
8573;BME280;4324;42.012;24.872;2022-10-31T04:50:31;99231.97;;;16.41;51.78
8573;BME280;4324;42.012;24.872;2022-10-31T04:52:59;99247.41;;;16.46;52.03
8573;BME280;4324;42.012;24.872;2022-10-31T04:55:26;99250.28;;;16.44;52.12
8573;BME280;4324;42.012;24.872;2022-10-31T04:57:53;99250.28;;;16.44;52.18
8573;BME280;4324;42.012;24.872;2022-10-31T05:00:21;99242.44;;;16.36;52.29
8573;BME280;4324;42.012;24.872;2022-10-31T05:02:49;99239.56;;;16.38;52.16
8573;BME280;4324;42.012;24.872;2022-10-31T05:05:18;99247.19;;;16.41;52.31
8573;BME280;4324;42.012;24.872;2022-10-31T05:07:47;99232.91;;;16.27;52.19
8573;BME280;4324;42.012;24.872;2022-10-31T05:10:18;99253.16;;;16.43;52.42
8573;BME280;4324;42.012;24.872;2022-10-31T05:12:45;99254.97;;;16.42;52.40
8573;BME280;4324;42.012;24.872;2022-10-31T05:15:14;99277.88;;;16.52;52.35
8573;BME280;4324;42.012;24.872;2022-10-31T05:17:41;99261.31;;;16.35;52.47
8573;BME280;4324;42.012;24.872;2022-10-31T05:20:08;99283.22;;;16.52;52.45
8573;BME280;4324;42.012;24.872;2022-10-31T05:22:36;99290.63;;;16.56;52.54
8573;BME280;4324;42.012;24.872;2022-10-31T05:25:03;99289.66;;;16.64;52.58
8573;BME280;4324;42.012;24.872;2022-10-31T05:27:31;99273.22;;;16.67;52.51
8573;BME280;4324;42.012;24.872;2022-10-31T05:29:58;99291.16;;;16.73;52.30
8573;BME280;4324;42.012;24.872;2022-10-31T05:32:25;99296.38;;;16.88;52.29
8573;BME280;4324;42.012;24.872;2022-10-31T05:34:51;99276.19;;;16.85;51.95
8573;BME280;4324;42.012;24.872;2022-10-31T05:37:18;99252.50;;;16.76;52.08
8573;BME280;4324;42.012;24.872;2022-10-31T05:39:45;99282.41;;;16.92;51.90
8573;BME280;4324;42.012;24.872;2022-10-31T05:42:12;99304.88;;;17.05;52.07
8573;BME280;4324;42.012;24.872;2022-10-31T05:44:44;99295.59;;;17.01;51.86
8573;BME280;4324;42.012;24.872;2022-10-31T05:47:11;99312.72;;;17.13;51.90
8573;BME280;4324;42.012;24.872;2022-10-31T05:49:39;99315.00;;;17.16;51.88
8573;BME280;4324;42.012;24.872;2022-10-31T05:52:06;99311.06;;;17.12;51.89
8573;BME280;4324;42.012;24.872;2022-10-31T05:54:33;99313.16;;;17.23;51.76
8573;BME280;4324;42.012;24.872;2022-10-31T05:57:00;99300.59;;;17.24;51.72
8573;BME280;4324;42.012;24.872;2022-10-31T05:59:27;99293.81;;;17.28;51.64
8573;BME280;4324;42.012;24.872;2022-10-31T06:01:55;99316.28;;;17.33;51.71
8573;BME280;4324;42.012;24.872;2022-10-31T06:04:23;99311.56;;;17.35;51.77
8573;BME280;4324;42.012;24.872;2022-10-31T06:06:50;99315.91;;;17.36;51.77
8573;BME280;4324;42.012;24.872;2022-10-31T06:09:17;99335.47;;;17.44;51.64
8573;BME280;4324;42.012;24.872;2022-10-31T06:11:44;99321.44;;;17.41;51.73
8573;BME280;4324;42.012;24.872;2022-10-31T06:14:12;99319.41;;;17.44;51.51
8573;BME280;4324;42.012;24.872;2022-10-31T06:16:39;99343.34;;;17.58;51.56
8573;BME280;4324;42.012;24.872;2022-10-31T06:19:23;99326.22;;;17.53;51.48
8573;BME280;4324;42.012;24.872;2022-10-31T06:21:53;99354.50;;;17.75;51.42
8573;BME280;4324;42.012;24.872;2022-10-31T06:24:19;99334.28;;;17.73;51.25
8573;BME280;4324;42.012;24.872;2022-10-31T06:26:49;99348.13;;;17.89;51.10
8573;BME280;4324;42.012;24.872;2022-10-31T06:29:18;99258.44;;;17.46;51.12
8573;BME280;4324;42.012;24.872;2022-10-31T06:31:51;99320.69;;;17.74;50.92
8573;BME280;4324;42.012;24.872;2022-10-31T06:34:34;99347.09;;;17.97;51.00
8573;BME280;4324;42.012;24.872;2022-10-31T06:37:17;99333.94;;;17.96;50.70
8573;BME280;4324;42.012;24.872;2022-10-31T06:39:55;99360.72;;;18.09;50.70
8573;BME280;4324;42.012;24.872;2022-10-31T06:42:43;99359.47;;;17.98;50.92
8573;BME280;4324;42.012;24.872;2022-10-31T06:45:29;99366.28;;;18.01;50.88
8573;BME280;4324;42.012;24.872;2022-10-31T06:48:14;99347.50;;;17.94;50.74
8573;BME280;4324;42.012;24.872;2022-10-31T06:50:43;99368.16;;;18.07;51.08
8573;BME280;4324;42.012;24.872;2022-10-31T06:53:11;99350.84;;;18.03;50.87
8573;BME280;4324;42.012;24.872;2022-10-31T06:55:59;99366.09;;;18.22;50.86
8573;BME280;4324;42.012;24.872;2022-10-31T06:58:26;99359.47;;;18.31;50.59
8573;BME280;4324;42.012;24.872;2022-10-31T07:00:53;99355.16;;;18.44;50.58
8573;BME280;4324;42.012;24.872;2022-10-31T07:03:20;99351.84;;;18.55;50.42
8573;BME280;4324;42.012;24.872;2022-10-31T07:05:48;99355.31;;;18.62;50.11
8573;BME280;4324;42.012;24.872;2022-10-31T07:08:31;99344.59;;;18.62;50.22
8573;BME280;4324;42.012;24.872;2022-10-31T07:10:58;99346.66;;;18.60;50.03
8573;BME280;4324;42.012;24.872;2022-10-31T07:13:25;99341.28;;;18.60;50.17
8573;BME280;4324;42.012;24.872;2022-10-31T07:15:53;99356.97;;;18.70;50.04
8573;BME280;4324;42.012;24.872;2022-10-31T07:18:27;99310.38;;;18.51;49.88
8573;BME280;4324;42.012;24.872;2022-10-31T07:20:57;99343.31;;;18.84;49.75
8573;BME280;4324;42.012;24.872;2022-10-31T07:23:27;99306.19;;;18.75;49.72
8573;BME280;4324;42.012;24.872;2022-10-31T07:25:59;99342.97;;;19.19;49.57
8573;BME280;4324;42.012;24.872;2022-10-31T07:28:26;99340.56;;;19.43;49.10
8573;BME280;4324;42.012;24.872;2022-10-31T07:30:57;99346.72;;;19.56;48.75
8573;BME280;4324;42.012;24.872;2022-10-31T07:33:31;99349.94;;;19.72;48.74
8573;BME280;4324;42.012;24.872;2022-10-31T07:36:00;99347.22;;;19.78;48.53
8573;BME280;4324;42.012;24.872;2022-10-31T07:38:27;99339.84;;;19.67;48.44
8573;BME280;4324;42.012;24.872;2022-10-31T07:40:54;99360.66;;;19.78;48.34
8573;BME280;4324;42.012;24.872;2022-10-31T07:43:21;99313.88;;;19.54;48.49
8573;BME280;4324;42.012;24.872;2022-10-31T07:45:52;99350.75;;;19.72;48.37
8573;BME280;4324;42.012;24.872;2022-10-31T07:48:23;99355.28;;;19.78;48.33
8573;BME280;4324;42.012;24.872;2022-10-31T07:50:50;99364.75;;;19.88;48.30
8573;BME280;4324;42.012;24.872;2022-10-31T07:53:18;99355.19;;;19.92;48.29
8573;BME280;4324;42.012;24.872;2022-10-31T07:55:45;99357.56;;;20.06;48.19
8573;BME280;4324;42.012;24.872;2022-10-31T07:58:14;99358.50;;;20.19;48.06
8573;BME280;4324;42.012;24.872;2022-10-31T08:00:43;99350.19;;;20.20;47.98
8573;BME280;4324;42.012;24.872;2022-10-31T08:03:17;99333.03;;;20.21;47.78
8573;BME280;4324;42.012;24.872;2022-10-31T08:05:45;99331.94;;;20.29;47.67
8573;BME280;4324;42.012;24.872;2022-10-31T08:08:13;99348.94;;;20.48;47.65
8573;BME280;4324;42.012;24.872;2022-10-31T08:10:42;99339.41;;;20.52;47.52
8573;BME280;4324;42.012;24.872;2022-10-31T08:13:11;99355.38;;;20.65;47.55
8573;BME280;4324;42.012;24.872;2022-10-31T08:15:38;99353.31;;;20.67;47.43
8573;BME280;4324;42.012;24.872;2022-10-31T08:18:11;99340.00;;;20.72;47.31
8573;BME280;4324;42.012;24.872;2022-10-31T08:20:38;99336.78;;;20.82;47.18
8573;BME280;4324;42.012;24.872;2022-10-31T08:23:05;99345.09;;;20.99;47.12
8573;BME280;4324;42.012;24.872;2022-10-31T08:25:34;99348.22;;;21.14;46.91
8573;BME280;4324;42.012;24.872;2022-10-31T08:28:03;99361.97;;;21.43;46.65
8573;BME280;4324;42.012;24.872;2022-10-31T08:30:33;99361.13;;;21.72;46.26
8573;BME280;4324;42.012;24.872;2022-10-31T08:33:02;99344.78;;;21.86;45.76
8573;BME280;4324;42.012;24.872;2022-10-31T08:35:29;99352.59;;;22.17;45.10
8573;BME280;4324;42.012;24.872;2022-10-31T08:37:56;99336.28;;;22.36;44.93
8573;BME280;4324;42.012;24.872;2022-10-31T08:40:24;99353.56;;;22.58;44.44
8573;BME280;4324;42.012;24.872;2022-10-31T08:42:56;99345.78;;;22.74;44.02
8573;BME280;4324;42.012;24.872;2022-10-31T08:45:25;99358.91;;;22.93;43.30
8573;BME280;4324;42.012;24.872;2022-10-31T08:47:58;99349.72;;;23.06;43.04
8573;BME280;4324;42.012;24.872;2022-10-31T08:50:26;99345.69;;;23.21;42.69
8573;BME280;4324;42.012;24.872;2022-10-31T08:52:59;99355.50;;;23.38;41.99
8573;BME280;4324;42.012;24.872;2022-10-31T08:55:26;99353.91;;;23.54;41.87
8573;BME280;4324;42.012;24.872;2022-10-31T08:57:56;99330.56;;;23.65;41.40
8573;BME280;4324;42.012;24.872;2022-10-31T09:00:27;99349.16;;;23.90;41.00
8573;BME280;4324;42.012;24.872;2022-10-31T09:03:13;99366.78;;;24.09;40.20
8573;BME280;4324;42.012;24.872;2022-10-31T09:05:49;99366.66;;;23.99;40.45
8573;BME280;4324;42.012;24.872;2022-10-31T09:08:17;99302.72;;;23.48;40.11
8573;BME280;4324;42.012;24.872;2022-10-31T09:10:44;99374.06;;;23.75;40.39
8573;BME280;4324;42.012;24.872;2022-10-31T09:13:13;99369.50;;;23.64;40.29
8573;BME280;4324;42.012;24.872;2022-10-31T09:15:43;99370.03;;;23.49;40.42
8573;BME280;4324;42.012;24.872;2022-10-31T09:18:11;99362.94;;;23.31;40.62
8573;BME280;4324;42.012;24.872;2022-10-31T09:20:39;99352.88;;;23.15;41.08
8573;BME280;4324;42.012;24.872;2022-10-31T09:23:11;99360.78;;;23.05;41.32
8573;BME280;4324;42.012;24.872;2022-10-31T09:25:39;99315.97;;;22.68;41.42
8573;BME280;4324;42.012;24.872;2022-10-31T09:28:08;99274.00;;;22.49;41.48
8573;BME280;4324;42.012;24.872;2022-10-31T09:30:37;99359.63;;;23.01;41.76
8573;BME280;4324;42.012;24.872;2022-10-31T09:33:10;99344.00;;;23.03;41.82
8573;BME280;4324;42.012;24.872;2022-10-31T09:35:38;99346.06;;;23.12;41.61
8573;BME280;4324;42.012;24.872;2022-10-31T09:38:08;99347.34;;;23.22;41.59
8573;BME280;4324;42.012;24.872;2022-10-31T09:40:37;99343.59;;;23.23;41.24
8573;BME280;4324;42.012;24.872;2022-10-31T09:43:12;99355.28;;;23.40;41.41
8573;BME280;4324;42.012;24.872;2022-10-31T09:45:46;99350.69;;;23.40;40.75
8573;BME280;4324;42.012;24.872;2022-10-31T09:48:53;99344.63;;;23.50;40.65
8573;BME280;4324;42.012;24.872;2022-10-31T09:51:28;99355.09;;;23.58;40.86
8573;BME280;4324;42.012;24.872;2022-10-31T09:54:00;99342.56;;;23.69;40.62
8573;BME280;4324;42.012;24.872;2022-10-31T09:56:31;99353.09;;;23.82;40.59
8573;BME280;4324;42.012;24.872;2022-10-31T09:59:00;99334.41;;;23.81;40.32
8573;BME280;4324;42.012;24.872;2022-10-31T10:01:42;99336.91;;;23.99;40.35
8573;BME280;4324;42.012;24.872;2022-10-31T10:04:30;99302.63;;;23.88;40.20
8573;BME280;4324;42.012;24.872;2022-10-31T10:07:08;99288.09;;;23.94;39.74
8573;BME280;4324;42.012;24.872;2022-10-31T10:09:38;99316.38;;;24.20;39.64
8573;BME280;4324;42.012;24.872;2022-10-31T10:12:16;99320.66;;;24.33;39.48
8573;BME280;4324;42.012;24.872;2022-10-31T10:15:00;99332.84;;;24.52;39.01
8573;BME280;4324;42.012;24.872;2022-10-31T10:17:40;99264.22;;;24.25;38.47
8573;BME280;4324;42.012;24.872;2022-10-31T10:20:18;99322.50;;;24.66;38.24
8573;BME280;4324;42.012;24.872;2022-10-31T10:22:56;99326.56;;;24.69;38.15
8573;BME280;4324;42.012;24.872;2022-10-31T10:25:33;99320.09;;;24.70;38.23
8573;BME280;4324;42.012;24.872;2022-10-31T10:28:13;99298.47;;;24.53;38.55
8573;BME280;4324;42.012;24.872;2022-10-31T10:30:46;99318.94;;;24.66;38.24
8573;BME280;4324;42.012;24.872;2022-10-31T10:33:19;99282.41;;;24.46;38.86
8573;BME280;4324;42.012;24.872;2022-10-31T10:35:51;99319.56;;;24.73;38.09
8573;BME280;4324;42.012;24.872;2022-10-31T10:38:24;99313.63;;;24.71;38.30
8573;BME280;4324;42.012;24.872;2022-10-31T10:40:54;99317.63;;;24.68;38.52
8573;BME280;4324;42.012;24.872;2022-10-31T10:43:24;99260.84;;;24.34;38.10
8573;BME280;4324;42.012;24.872;2022-10-31T10:46:00;99308.88;;;24.61;38.48
8573;BME280;4324;42.012;24.872;2022-10-31T10:48:54;99252.25;;;24.21;38.65
8573;BME280;4324;42.012;24.872;2022-10-31T10:54:31;99250.78;;;24.30;38.34
8573;BME280;4324;42.012;24.872;2022-10-31T10:57:11;99273.16;;;24.42;38.42
8573;BME280;4324;42.012;24.872;2022-10-31T10:59:40;99281.84;;;24.44;38.14
8573;BME280;4324;42.012;24.872;2022-10-31T11:02:21;99287.19;;;24.39;38.49
8573;BME280;4324;42.012;24.872;2022-10-31T11:04:51;99283.44;;;24.40;38.12
8573;BME280;4324;42.012;24.872;2022-10-31T11:07:20;99299.56;;;24.52;38.12
8573;BME280;4324;42.012;24.872;2022-10-31T11:09:47;99281.59;;;24.46;38.14
8573;BME280;4324;42.012;24.872;2022-10-31T11:12:25;99278.06;;;24.45;38.14
8573;BME280;4324;42.012;24.872;2022-10-31T11:15:00;99240.50;;;24.32;37.91
8573;BME280;4324;42.012;24.872;2022-10-31T11:17:40;99249.94;;;24.46;37.65
8573;BME280;4324;42.012;24.872;2022-10-31T11:20:25;99273.00;;;24.71;37.76
8573;BME280;4324;42.012;24.872;2022-10-31T11:23:03;99279.03;;;24.78;37.63
8573;BME280;4324;42.012;24.872;2022-10-31T11:25:31;99295.47;;;24.93;37.62
8573;BME280;4324;42.012;24.872;2022-10-31T11:27:59;99272.09;;;24.87;37.04
8573;BME280;4324;42.012;24.872;2022-10-31T11:30:27;99284.94;;;24.97;37.24
8573;BME280;4324;42.012;24.872;2022-10-31T11:32:59;99247.09;;;24.80;37.34
8573;BME280;4324;42.012;24.872;2022-10-31T11:35:29;99275.28;;;25.06;37.12
8573;BME280;4324;42.012;24.872;2022-10-31T11:37:58;99268.25;;;25.05;37.29
8573;BME280;4324;42.012;24.872;2022-10-31T11:40:28;99262.31;;;25.08;37.30
8573;BME280;4324;42.012;24.872;2022-10-31T11:42:57;99278.00;;;25.28;37.33
8573;BME280;4324;42.012;24.872;2022-10-31T11:45:34;99273.38;;;25.28;36.94
8573;BME280;4324;42.012;24.872;2022-10-31T11:48:15;99272.28;;;25.24;37.11
8573;BME280;4324;42.012;24.872;2022-10-31T11:50:48;99246.88;;;25.08;36.83
8573;BME280;4324;42.012;24.872;2022-10-31T11:53:17;99190.19;;;24.75;36.87
8573;BME280;4324;42.012;24.872;2022-10-31T11:55:59;99262.19;;;25.20;37.04
8573;BME280;4324;42.012;24.872;2022-10-31T11:58:27;99259.75;;;25.18;36.86
8573;BME280;4324;42.012;24.872;2022-10-31T12:00:56;99213.72;;;24.96;37.14
8573;BME280;4324;42.012;24.872;2022-10-31T12:06:18;99217.88;;;25.09;37.29
8573;BME280;4324;42.012;24.872;2022-10-31T12:08:47;99214.13;;;25.10;37.00
8573;BME280;4324;42.012;24.872;2022-10-31T12:11:28;99187.38;;;24.92;37.27
8573;BME280;4324;42.012;24.872;2022-10-31T12:14:10;99223.91;;;25.11;37.28
8573;BME280;4324;42.012;24.872;2022-10-31T12:16:48;99231.78;;;25.13;36.82
8573;BME280;4324;42.012;24.872;2022-10-31T12:19:23;99269.31;;;25.26;36.60
8573;BME280;4324;42.012;24.872;2022-10-31T12:22:02;99267.66;;;25.25;36.06
8573;BME280;4324;42.012;24.872;2022-10-31T12:24:42;99257.06;;;25.18;36.32
8573;BME280;4324;42.012;24.872;2022-10-31T12:27:24;99272.09;;;25.36;36.14
8573;BME280;4324;42.012;24.872;2022-10-31T12:30:11;99275.44;;;25.43;36.05
8573;BME280;4324;42.012;24.872;2022-10-31T12:32:56;99213.38;;;25.15;36.47
8573;BME280;4324;42.012;24.872;2022-10-31T12:35:32;99256.41;;;25.38;36.23
8573;BME280;4324;42.012;24.872;2022-10-31T12:41:04;99257.28;;;25.44;36.31
8573;BME280;4324;42.012;24.872;2022-10-31T12:43:43;99261.38;;;25.46;36.51
8573;BME280;4324;42.012;24.872;2022-10-31T12:46:19;99261.38;;;25.46;36.31
8573;BME280;4324;42.012;24.872;2022-10-31T12:49:07;99257.34;;;25.49;36.42
8573;BME280;4324;42.012;24.872;2022-10-31T12:51:50;99265.72;;;25.47;36.38
8573;BME280;4324;42.012;24.872;2022-10-31T12:54:43;99238.53;;;25.37;36.26
8573;BME280;4324;42.012;24.872;2022-10-31T12:57:22;99261.75;;;25.55;36.30
8573;BME280;4324;42.012;24.872;2022-10-31T12:59:56;99242.16;;;25.48;36.22
8573;BME280;4324;42.012;24.872;2022-10-31T13:02:28;99257.16;;;25.61;36.08
8573;BME280;4324;42.012;24.872;2022-10-31T13:04:58;99248.00;;;25.67;36.02
8573;BME280;4324;42.012;24.872;2022-10-31T13:07:32;99209.84;;;25.41;35.93
8573;BME280;4324;42.012;24.872;2022-10-31T13:10:04;99257.28;;;25.76;35.96
8573;BME280;4324;42.012;24.872;2022-10-31T13:12:34;99251.38;;;25.79;35.80
8573;BME280;4324;42.012;24.872;2022-10-31T13:15:16;99250.28;;;25.80;35.61
8573;BME280;4324;42.012;24.872;2022-10-31T13:18:04;99240.53;;;25.79;35.68
8573;BME280;4324;42.012;24.872;2022-10-31T13:20:37;99247.38;;;25.87;35.60
8573;BME280;4324;42.012;24.872;2022-10-31T13:23:09;99210.56;;;25.64;35.33
8573;BME280;4324;42.012;24.872;2022-10-31T13:25:46;99254.41;;;25.88;35.69
8573;BME280;4324;42.012;24.872;2022-10-31T13:28:40;99233.44;;;25.78;35.35
8573;BME280;4324;42.012;24.872;2022-10-31T13:31:14;99257.41;;;25.86;35.48
8573;BME280;4324;42.012;24.872;2022-10-31T13:34:03;99238.28;;;25.71;35.35
8573;BME280;4324;42.012;24.872;2022-10-31T13:36:33;99245.31;;;25.72;35.57
8573;BME280;4324;42.012;24.872;2022-10-31T13:39:25;99243.69;;;25.71;35.80
8573;BME280;4324;42.012;24.872;2022-10-31T13:42:04;99223.78;;;25.55;35.57
8573;BME280;4324;42.012;24.872;2022-10-31T13:44:38;99238.69;;;25.57;36.03